Time;durP1;ratioP1;P1;durP2;ratioP2;P2;SDS_P1;SDS_P2;PMS_P1;PMS_P2;Temp;Humidity;BMP_temperature;BMP_pressure;BME280_temperature;BME280_humidity;BME280_pressure;Samples;Min_cycle;Max_cycle;Signal;HPM_P1;HPM_P2
2021/08/05 00:01:50;;;;;;;3.10;2.22;;;15.30;99.90;;;;;;5057080;28;20123;-79
2021/08/05 00:04:15;;;;;;;2.60;2.08;;;15.30;99.90;;;;;;5052017;28;20079;-79
2021/08/05 00:06:41;;;;;;;2.55;2.15;;;15.30;99.90;;;;;;5060276;28;20025;-79
2021/08/05 00:09:08;;;;;;;2.58;2.28;;;15.30;99.90;;;;;;5055964;28;20044;-79
2021/08/05 00:11:35;;;;;;;3.10;2.60;;;15.30;99.90;;;;;;5052804;28;20064;-78
2021/08/05 00:14:01;;;;;;;2.65;2.38;;;15.30;99.90;;;;;;5055237;28;20033;-79
2021/08/05 00:16:27;;;;;;;4.32;2.75;;;15.30;99.90;;;;;;5044796;28;20033;-79
2021/08/05 00:18:53;;;;;;;2.50;2.30;;;15.30;99.90;;;;;;5055665;28;20435;-80
2021/08/05 00:21:20;;;;;;;2.58;2.15;;;15.30;99.90;;;;;;5040054;28;20032;-80
2021/08/05 00:23:46;;;;;;;2.72;2.20;;;15.30;99.90;;;;;;5042240;28;20040;-80
2021/08/05 00:26:13;;;;;;;2.58;2.38;;;15.30;99.90;;;;;;5062163;28;20044;-79
2021/08/05 00:28:39;;;;;;;2.45;2.15;;;15.30;99.90;;;;;;5035820;28;20033;-80
2021/08/05 00:31:05;;;;;;;2.20;1.98;;;15.30;99.90;;;;;;5057134;28;20114;-80
2021/08/05 00:33:31;;;;;;;2.85;2.10;;;15.30;99.90;;;;;;5051567;28;20030;-80
2021/08/05 00:35:58;;;;;;;4.18;2.42;;;15.30;99.90;;;;;;5016918;28;20039;-78
2021/08/05 00:38:24;;;;;;;2.00;1.90;;;15.30;99.90;;;;;;5058022;28;20060;-80
2021/08/05 00:40:52;;;;;;;3.95;2.17;;;15.30;99.90;;;;;;5042236;28;20018;-80
2021/08/05 00:43:19;;;;;;;2.78;2.15;;;15.30;99.90;;;;;;5059726;28;20090;-80
2021/08/05 00:45:45;;;;;;;2.85;2.25;;;15.30;99.90;;;;;;5058735;28;20457;-79
2021/08/05 00:48:13;;;;;;;4.30;2.03;;;15.30;99.90;;;;;;5031531;28;20044;-80
2021/08/05 00:50:39;;;;;;;2.67;2.33;;;15.30;99.90;;;;;;5037700;28;20029;-79
2021/08/05 00:53:05;;;;;;;2.88;2.40;;;15.20;99.90;;;;;;5042869;28;20067;-79
2021/08/05 00:55:31;;;;;;;2.80;2.33;;;15.30;99.90;;;;;;5057956;28;20048;-80
2021/08/05 00:57:57;;;;;;;2.35;2.00;;;15.20;99.90;;;;;;5059274;28;20033;-79
2021/08/05 01:00:25;;;;;;;3.63;2.35;;;15.20;99.90;;;;;;5037760;28;20049;-79
2021/08/05 01:03:15;;;;;;;2.75;2.45;;;15.20;99.90;;;;;;5050251;28;20056;-80
2021/08/05 01:05:46;;;;;;;3.08;2.40;;;15.20;99.90;;;;;;5052450;28;20246;-80
2021/08/05 01:08:18;;;;;;;2.13;1.92;;;15.20;99.90;;;;;;5044882;28;20108;-79
2021/08/05 01:10:54;;;;;;;2.45;2.25;;;15.20;99.90;;;;;;5040150;28;20115;-79
2021/08/05 01:14:06;;;;;;;3.17;2.10;;;15.20;99.90;;;;;;5052902;28;20033;-79
2021/08/05 01:16:37;;;;;;;2.40;2.20;;;15.20;99.90;;;;;;5034477;28;20037;-79
2021/08/05 01:19:40;;;;;;;3.03;2.13;;;15.10;99.90;;;;;;5054680;28;20033;-79
2021/08/05 01:22:12;;;;;;;2.47;1.98;;;15.20;99.90;;;;;;5056814;28;20463;-79
2021/08/05 01:24:48;;;;;;;3.28;2.50;;;15.10;99.90;;;;;;5052863;28;20075;-79
2021/08/05 01:27:16;;;;;;;4.05;2.47;;;15.10;99.90;;;;;;5072997;28;20041;-79
2021/08/05 01:29:42;;;;;;;2.10;1.90;;;15.10;99.90;;;;;;5062789;28;20037;-79
2021/08/05 01:32:09;;;;;;;4.50;2.13;;;15.10;99.90;;;;;;5043811;28;20041;-80
2021/08/05 01:34:37;;;;;;;2.30;2.10;;;15.10;99.90;;;;;;5061240;28;20484;-79
2021/08/05 01:37:05;;;;;;;2.20;2.00;;;15.10;99.90;;;;;;5061811;28;20036;-80
2021/08/05 01:39:31;;;;;;;2.38;2.08;;;15.00;99.90;;;;;;5057463;28;20057;-79
2021/08/05 01:41:58;;;;;;;3.00;1.85;;;15.00;99.90;;;;;;5038887;28;20047;-78
2021/08/05 01:44:26;;;;;;;1.98;1.80;;;15.00;99.90;;;;;;5053907;28;20063;-79
2021/08/05 01:46:53;;;;;;;2.58;1.67;;;15.00;99.90;;;;;;5057299;28;20040;-79
2021/08/05 01:49:20;;;;;;;2.05;1.80;;;15.00;99.90;;;;;;5030360;28;20097;-80
2021/08/05 01:51:50;;;;;;;4.15;2.05;;;15.00;99.90;;;;;;5061152;28;20505;-80
2021/08/05 01:54:16;;;;;;;4.07;1.90;;;15.00;99.90;;;;;;5060192;28;20037;-80
2021/08/05 01:56:42;;;;;;;2.00;1.85;;;15.00;99.90;;;;;;5054993;28;20090;-80
2021/08/05 01:59:09;;;;;;;1.98;1.80;;;15.00;99.90;;;;;;5063287;28;20061;-80
2021/08/05 02:01:35;;;;;;;3.95;2.00;;;15.00;99.90;;;;;;5064746;28;20033;-80
2021/08/05 02:04:26;;;;;;;2.15;1.95;;;15.00;99.90;;;;;;5052745;28;20034;-81
2021/08/05 02:07:02;;;;;;;3.33;2.15;;;15.00;99.90;;;;;;5043606;28;20036;-80
2021/08/05 02:09:34;;;;;;;4.43;2.50;;;14.90;99.90;;;;;;5038321;28;20034;-80
2021/08/05 02:12:01;;;;;;;1.90;1.80;;;14.90;99.90;;;;;;5036319;28;20024;-80
2021/08/05 02:14:28;;;;;;;2.15;1.70;;;14.90;99.90;;;;;;5058154;28;20055;-80
2021/08/05 02:16:55;;;;;;;3.88;2.35;;;14.90;99.90;;;;;;5058830;28;20112;-80
2021/08/05 02:19:24;;;;;;;4.78;2.40;;;14.90;99.90;;;;;;5047093;23;21655;-79
2021/08/05 02:21:50;;;;;;;3.90;2.35;;;14.90;99.90;;;;;;4999278;28;20026;-79
2021/08/05 02:24:18;;;;;;;2.88;1.80;;;14.90;99.90;;;;;;4984581;28;20042;-79
2021/08/05 02:26:44;;;;;;;2.22;2.03;;;14.90;99.90;;;;;;4978261;28;20408;-79
2021/08/05 02:29:11;;;;;;;1.92;1.80;;;14.90;99.90;;;;;;4977571;28;20061;-79
2021/08/05 02:31:37;;;;;;;2.20;1.98;;;14.90;99.90;;;;;;4961504;28;20042;-79
2021/08/05 02:34:05;;;;;;;2.08;1.88;;;14.90;99.90;;;;;;4978159;28;20119;-79
2021/08/05 02:36:32;;;;;;;2.28;1.98;;;14.80;99.90;;;;;;4988087;28;20089;-79
2021/08/05 02:38:58;;;;;;;2.78;1.83;;;14.80;99.90;;;;;;4992967;28;20026;-79
2021/08/05 02:41:26;;;;;;;2.78;2.10;;;14.80;99.90;;;;;;4991421;28;20026;-79
2021/08/05 02:43:53;;;;;;;2.03;1.83;;;14.80;99.90;;;;;;4963468;28;20513;-79
2021/08/05 02:46:19;;;;;;;3.38;2.17;;;14.80;99.90;;;;;;4969540;28;20034;-79
2021/08/05 02:48:47;;;;;;;2.75;2.10;;;14.80;99.90;;;;;;4977545;28;20495;-79
2021/08/05 02:51:17;;;;;;;2.55;2.25;;;14.80;99.90;;;;;;4992490;28;20488;-79
2021/08/05 02:53:44;;;;;;;2.75;2.30;;;14.80;99.90;;;;;;4991385;28;20034;-79
2021/08/05 02:56:10;;;;;;;2.42;2.03;;;14.80;99.90;;;;;;4977869;28;20177;-80
2021/08/05 02:58:37;;;;;;;2.85;2.30;;;14.70;99.90;;;;;;4977003;28;20035;-78
2021/08/05 03:01:04;;;;;;;3.05;2.30;;;14.70;99.90;;;;;;4973921;28;20113;-79
2021/08/05 03:03:30;;;;;;;1.95;1.75;;;14.70;99.90;;;;;;4981479;28;20034;-79
2021/08/05 03:05:57;;;;;;;3.35;2.50;;;14.70;99.90;;;;;;4995035;28;20057;-79
2021/08/05 03:08:23;;;;;;;2.75;2.10;;;14.70;99.90;;;;;;4990555;28;20045;-79
2021/08/05 03:10:48;;;;;;;3.28;2.00;;;14.70;99.90;;;;;;4991624;28;20034;-79
2021/08/05 03:13:14;;;;;;;2.90;1.98;;;14.70;99.90;;;;;;4977664;28;20481;-79
2021/08/05 03:15:40;;;;;;;3.42;2.38;;;14.70;99.90;;;;;;4993576;28;20034;-80
2021/08/05 03:18:06;;;;;;;3.13;1.90;;;14.70;99.90;;;;;;4974585;28;20041;-79
2021/08/05 03:20:32;;;;;;;2.97;2.28;;;14.70;99.90;;;;;;4994513;28;20120;-79
2021/08/05 03:22:59;;;;;;;2.45;2.10;;;14.70;99.90;;;;;;5016091;28;20061;-79
2021/08/05 03:25:26;;;;;;;2.38;2.17;;;14.70;99.90;;;;;;5006254;28;20548;-79
2021/08/05 03:27:51;;;;;;;2.10;1.90;;;14.70;99.90;;;;;;4972547;28;20089;-79
2021/08/05 03:30:17;;;;;;;3.78;2.42;;;14.70;99.90;;;;;;4957792;28;20035;-80
2021/08/05 03:32:43;;;;;;;3.08;2.17;;;14.70;99.90;;;;;;4991043;28;20532;-79
2021/08/05 03:35:09;;;;;;;2.83;2.20;;;14.70;99.90;;;;;;4993485;28;20030;-80
2021/08/05 03:37:35;;;;;;;5.80;2.40;;;14.70;99.90;;;;;;4961235;28;20042;-79
2021/08/05 03:40:00;;;;;;;4.15;2.08;;;14.60;99.90;;;;;;4991538;28;20385;-79
2021/08/05 03:42:26;;;;;;;2.47;2.15;;;14.60;99.90;;;;;;4993362;28;20026;-79
2021/08/05 03:44:52;;;;;;;4.18;2.08;;;14.60;99.90;;;;;;4980238;28;20058;-79
2021/08/05 03:47:18;;;;;;;3.83;1.92;;;14.60;99.90;;;;;;4973850;28;20049;-79
2021/08/05 03:49:44;;;;;;;2.50;2.30;;;14.60;99.90;;;;;;4987725;28;20093;-80
2021/08/05 03:52:12;;;;;;;2.63;2.42;;;14.60;99.90;;;;;;4993227;28;20042;-79
2021/08/05 03:54:38;;;;;;;2.40;2.08;;;14.60;99.90;;;;;;4993060;28;20030;-79
2021/08/05 03:57:04;;;;;;;3.97;2.10;;;14.60;99.90;;;;;;4992102;28;20034;-79
2021/08/05 03:59:30;;;;;;;3.35;2.53;;;14.60;99.90;;;;;;4993218;28;20448;-79
2021/08/05 04:01:56;;;;;;;3.22;1.95;;;14.60;99.90;;;;;;4992444;28;20477;-79
2021/08/05 04:04:21;;;;;;;2.42;2.22;;;14.60;99.90;;;;;;4992781;28;20034;-79
2021/08/05 04:06:47;;;;;;;7.05;1.95;;;14.60;99.90;;;;;;4992582;28;20038;-79
2021/08/05 04:09:13;;;;;;;4.13;2.38;;;14.60;99.90;;;;;;4992267;28;20081;-79
2021/08/05 04:11:38;;;;;;;3.33;1.80;;;14.60;99.90;;;;;;4990941;28;20095;-79
2021/08/05 04:14:04;;;;;;;2.20;2.00;;;14.60;99.90;;;;;;4966950;28;20496;-79
2021/08/05 04:16:30;;;;;;;3.92;1.67;;;14.50;99.90;;;;;;4976085;28;20143;-79
2021/08/05 04:18:56;;;;;;;2.35;1.90;;;14.60;99.90;;;;;;4992022;28;20038;-79
2021/08/05 04:21:21;;;;;;;2.15;1.90;;;14.60;99.90;;;;;;4991147;28;20411;-79
2021/08/05 04:23:47;;;;;;;2.30;2.10;;;14.60;99.90;;;;;;4995747;28;20511;-79
2021/08/05 04:26:13;;;;;;;3.05;1.75;;;14.60;99.90;;;;;;4981212;28;20119;-79
2021/08/05 04:28:38;;;;;;;2.60;2.05;;;14.60;99.90;;;;;;4988321;28;20030;-80
2021/08/05 04:31:04;;;;;;;2.20;2.00;;;14.60;99.90;;;;;;4991939;28;20577;-79
2021/08/05 04:33:29;;;;;;;2.40;2.20;;;14.60;99.90;;;;;;4991955;28;20546;-80
2021/08/05 04:35:55;;;;;;;2.20;2.00;;;14.60;99.90;;;;;;4992590;28;20392;-79
2021/08/05 04:38:21;;;;;;;2.85;1.75;;;14.60;99.90;;;;;;4992317;28;20090;-80
2021/08/05 04:40:46;;;;;;;3.05;2.30;;;14.60;99.90;;;;;;4990563;28;20039;-80
2021/08/05 04:43:12;;;;;;;3.95;2.25;;;14.60;99.90;;;;;;4993808;28;20029;-80
2021/08/05 04:45:38;;;;;;;3.95;2.45;;;14.60;99.90;;;;;;4992076;28;20503;-79
2021/08/05 04:48:06;;;;;;;2.83;2.25;;;14.60;99.90;;;;;;4992259;28;20041;-79
2021/08/05 04:50:38;;;;;;;8.02;2.15;;;14.60;99.90;;;;;;4991670;28;20070;-79
2021/08/05 04:53:04;;;;;;;2.20;1.83;;;14.60;99.90;;;;;;4993057;28;20049;-79
2021/08/05 04:55:30;;;;;;;2.13;1.80;;;14.60;99.90;;;;;;4993088;28;20022;-80
2021/08/05 04:58:01;;;;;;;2.22;1.95;;;14.60;99.90;;;;;;4990429;28;20030;-79
2021/08/05 05:00:29;;;;;;;2.60;1.95;;;14.60;99.90;;;;;;4992283;28;20030;-79
2021/08/05 05:02:55;;;;;;;2.63;1.90;;;14.70;99.90;;;;;;4992241;28;20483;-79
2021/08/05 05:05:22;;;;;;;1.60;1.50;;;14.70;99.90;;;;;;4992826;28;20089;-79
2021/08/05 05:07:49;;;;;;;3.20;2.20;;;14.70;99.90;;;;;;4960023;28;20034;-80
2021/08/05 05:10:15;;;;;;;3.00;1.52;;;14.70;99.90;;;;;;4991522;28;20378;-79
2021/08/05 05:12:42;;;;;;;1.73;1.63;;;14.70;99.90;;;;;;4991648;28;20041;-79
2021/08/05 05:15:09;;;;;;;2.22;1.83;;;14.70;99.90;;;;;;4991779;28;20033;-79
2021/08/05 05:17:35;;;;;;;3.13;2.35;;;14.80;99.90;;;;;;4991732;28;20038;-79
2021/08/05 05:20:03;;;;;;;2.13;1.92;;;14.80;99.90;;;;;;4990952;28;20457;-79
2021/08/05 05:22:29;;;;;;;5.20;1.55;;;14.80;99.90;;;;;;4992048;28;20050;-79
2021/08/05 05:24:55;;;;;;;2.08;1.90;;;14.90;99.90;;;;;;4983816;28;20031;-79
2021/08/05 05:27:20;;;;;;;2.53;1.88;;;14.90;99.90;;;;;;4978392;28;20034;-79
2021/08/05 05:29:46;;;;;;;2.70;1.88;;;14.90;99.90;;;;;;4991231;28;20054;-79
2021/08/05 05:32:12;;;;;;;2.13;1.65;;;14.90;99.90;;;;;;4991494;28;20125;-79
2021/08/05 05:34:37;;;;;;;2.40;1.83;;;14.90;99.90;;;;;;4991568;28;20030;-80
2021/08/05 05:37:03;;;;;;;2.47;2.00;;;15.00;99.90;;;;;;4992849;28;20035;-79
2021/08/05 05:39:29;;;;;;;1.95;1.75;;;15.00;99.90;;;;;;4991059;28;20030;-80
2021/08/05 05:41:55;;;;;;;3.13;1.98;;;15.00;99.90;;;;;;4989865;28;20391;-80
2021/08/05 05:44:20;;;;;;;2.22;1.98;;;15.10;99.90;;;;;;4991420;28;20505;-79
2021/08/05 05:46:46;;;;;;;3.22;2.00;;;15.10;99.90;;;;;;4975618;28;20038;-79
2021/08/05 05:49:12;;;;;;;5.40;1.90;;;15.10;99.90;;;;;;4974729;28;20046;-80
2021/08/05 05:51:38;;;;;;;2.25;2.05;;;15.20;99.90;;;;;;4991585;28;20045;-79
2021/08/05 05:54:05;;;;;;;2.45;2.25;;;15.20;99.90;;;;;;4993260;28;20385;-79
2021/08/05 05:56:32;;;;;;;3.15;2.28;;;15.30;99.90;;;;;;4992805;28;20452;-80
2021/08/05 05:58:57;;;;;;;2.50;2.20;;;15.30;99.90;;;;;;4990947;28;20126;-80
2021/08/05 06:01:23;;;;;;;3.08;2.10;;;15.40;99.90;;;;;;4984286;28;20054;-79
2021/08/05 06:03:49;;;;;;;2.60;2.08;;;15.40;99.90;;;;;;4991273;28;20412;-79
2021/08/05 06:06:14;;;;;;;1.80;1.65;;;15.50;99.90;;;;;;4994649;28;20062;-79
2021/08/05 06:08:40;;;;;;;2.00;1.80;;;15.50;99.90;;;;;;4994554;28;20034;-79
2021/08/05 06:11:06;;;;;;;2.13;1.95;;;15.60;99.90;;;;;;4994159;28;20477;-79
2021/08/05 06:13:32;;;;;;;1.80;1.70;;;15.60;99.90;;;;;;4978396;28;20042;-79
2021/08/05 06:15:57;;;;;;;2.17;1.98;;;15.70;99.90;;;;;;4991187;28;20668;-79
2021/08/05 06:18:23;;;;;;;2.58;1.88;;;15.70;99.90;;;;;;4976245;28;20035;-80
2021/08/05 06:20:49;;;;;;;5.13;2.40;;;15.80;99.90;;;;;;5002514;28;20064;-79
2021/08/05 06:23:15;;;;;;;2.60;1.90;;;15.80;99.90;;;;;;4994562;28;20113;-80
2021/08/05 06:25:41;;;;;;;2.28;1.92;;;15.90;99.90;;;;;;4992263;28;20026;-79
2021/08/05 06:28:06;;;;;;;3.03;2.03;;;15.90;99.90;;;;;;4995998;28;20081;-79
2021/08/05 06:30:32;;;;;;;2.97;2.50;;;15.90;99.90;;;;;;4992683;28;20071;-79
2021/08/05 06:32:58;;;;;;;2.40;2.20;;;15.90;99.90;;;;;;4995670;28;20030;-79
2021/08/05 06:35:24;;;;;;;2.53;2.33;;;15.80;99.90;;;;;;4977035;28;20042;-80
2021/08/05 06:37:51;;;;;;;3.95;2.08;;;15.80;99.90;;;;;;4995959;28;20042;-79
2021/08/05 06:40:17;;;;;;;2.97;2.20;;;15.90;99.90;;;;;;4975562;28;20034;-80
2021/08/05 06:42:44;;;;;;;2.35;1.92;;;15.90;99.90;;;;;;4994683;28;20027;-80
2021/08/05 06:45:12;;;;;;;3.72;2.58;;;15.90;99.90;;;;;;4972425;28;20085;-80
2021/08/05 06:47:40;;;;;;;2.15;1.70;;;15.90;99.90;;;;;;4993279;28;20058;-80
2021/08/05 06:50:08;;;;;;;2.60;2.08;;;15.90;99.90;;;;;;4988659;28;20041;-80
2021/08/05 06:52:34;;;;;;;2.05;1.85;;;16.00;99.90;;;;;;4988931;28;20026;-80
2021/08/05 06:55:00;;;;;;;2.38;1.92;;;16.00;99.90;;;;;;4992103;28;20370;-80
2021/08/05 06:57:25;;;;;;;2.97;2.22;;;16.00;99.90;;;;;;4967417;28;20070;-80
2021/08/05 06:59:51;;;;;;;2.72;2.47;;;16.10;99.90;;;;;;4991573;28;20030;-80
2021/08/05 07:02:17;;;;;;;2.10;1.75;;;16.10;99.90;;;;;;4961810;28;20161;-81
2021/08/05 07:04:43;;;;;;;3.33;2.65;;;16.10;99.90;;;;;;4990376;28;20039;-80
2021/08/05 07:07:08;;;;;;;5.53;2.85;;;16.10;99.90;;;;;;4994122;28;20041;-80
2021/08/05 07:09:35;;;;;;;2.45;2.10;;;16.10;99.90;;;;;;4991690;28;20106;-80
2021/08/05 07:12:01;;;;;;;3.65;2.65;;;16.10;99.90;;;;;;4958457;28;20082;-79
2021/08/05 07:14:26;;;;;;;3.20;2.63;;;16.10;99.90;;;;;;4990616;28;20045;-80
2021/08/05 07:16:52;;;;;;;4.35;3.13;;;16.10;99.90;;;;;;4975800;28;20097;-80
2021/08/05 07:19:18;;;;;;;3.85;2.67;;;16.10;99.90;;;;;;4992739;28;20038;-80
2021/08/05 07:21:43;;;;;;;3.58;2.92;;;16.10;99.90;;;;;;4997202;28;20489;-80
2021/08/05 07:24:12;;;;;;;3.58;2.67;;;16.10;99.90;;;;;;4993929;28;20040;-79
2021/08/05 07:26:38;;;;;;;3.42;2.92;;;16.10;99.90;;;;;;4989553;28;20555;-80
2021/08/05 07:29:07;;;;;;;3.20;2.90;;;16.20;99.90;;;;;;4996377;28;20046;-80
2021/08/05 07:31:33;;;;;;;4.03;3.05;;;16.10;99.90;;;;;;4977223;28;20031;-80
2021/08/05 07:34:00;;;;;;;3.75;3.00;;;16.20;99.90;;;;;;4983273;28;20035;-80
2021/08/05 07:36:27;;;;;;;4.03;2.60;;;16.20;99.90;;;;;;4974756;28;20042;-80
2021/08/05 07:38:53;;;;;;;4.85;2.85;;;16.20;99.90;;;;;;4972447;28;20041;-80
2021/08/05 07:41:19;;;;;;;4.47;3.63;;;16.30;99.90;;;;;;4993898;28;20030;-80
2021/08/05 07:43:46;;;;;;;4.32;3.45;;;16.20;99.90;;;;;;4975306;28;20469;-80
2021/08/05 07:46:12;;;;;;;2.70;2.50;;;16.20;99.90;;;;;;4981883;28;20089;-80
2021/08/05 07:48:38;;;;;;;5.47;3.67;;;16.30;99.90;;;;;;4992327;28;20448;-81
2021/08/05 07:51:04;;;;;;;5.68;3.58;;;16.30;99.90;;;;;;4989765;28;20042;-80
2021/08/05 07:53:29;;;;;;;4.75;3.67;;;16.30;99.90;;;;;;4991991;28;20066;-80
2021/08/05 07:55:55;;;;;;;5.13;3.47;;;16.30;99.90;;;;;;4986621;28;20117;-80
2021/08/05 07:58:21;;;;;;;3.67;3.03;;;16.30;99.90;;;;;;4988201;28;20035;-79
2021/08/05 08:00:46;;;;;;;6.90;4.15;;;16.30;99.90;;;;;;4990392;28;20117;-79
2021/08/05 08:03:13;;;;;;;4.05;3.38;;;16.40;99.90;;;;;;4975005;28;20034;-79
2021/08/05 08:05:40;;;;;;;6.35;4.22;;;16.40;99.90;;;;;;4955878;28;20035;-79
2021/08/05 08:08:06;;;;;;;6.43;3.72;;;16.40;99.90;;;;;;4971682;28;20409;-80
2021/08/05 08:10:33;;;;;;;7.10;4.30;;;16.50;99.90;;;;;;4976868;28;20045;-80
2021/08/05 08:12:58;;;;;;;6.57;4.40;;;16.50;99.90;;;;;;4992003;28;20098;-79
2021/08/05 08:15:25;;;;;;;5.25;4.03;;;16.60;99.90;;;;;;4992075;28;20058;-79
2021/08/05 08:17:52;;;;;;;4.90;3.88;;;16.60;99.90;;;;;;4958800;28;20084;-80
2021/08/05 08:20:19;;;;;;;6.90;4.72;;;16.60;99.90;;;;;;4969839;28;20119;-79
2021/08/05 08:22:44;;;;;;;4.00;3.03;;;16.70;99.90;;;;;;4984684;28;20018;-80
2021/08/05 08:25:11;;;;;;;7.43;4.47;;;16.70;99.90;;;;;;4992030;28;20034;-80
2021/08/05 08:27:38;;;;;;;6.05;4.28;;;16.70;99.90;;;;;;4993370;28;20034;-79
2021/08/05 08:30:04;;;;;;;8.30;4.45;;;16.80;99.90;;;;;;4976260;28;20042;-80
2021/08/05 08:32:30;;;;;;;5.38;4.45;;;16.90;99.90;;;;;;4985618;28;20485;-79
2021/08/05 08:34:58;;;;;;;6.63;5.18;;;17.00;99.90;;;;;;4994566;28;20037;-80
2021/08/05 08:37:25;;;;;;;6.97;5.13;;;17.00;99.90;;;;;;4979016;28;20473;-81
2021/08/05 08:39:50;;;;;;;6.88;5.50;;;17.10;99.90;;;;;;4991932;28;20119;-80
2021/08/05 08:42:17;;;;;;;7.30;5.15;;;17.20;99.90;;;;;;4976933;28;20058;-80
2021/08/05 08:44:43;;;;;;;7.28;4.80;;;17.30;99.90;;;;;;4960893;28;20130;-80
2021/08/05 08:47:11;;;;;;;5.10;4.40;;;17.30;99.90;;;;;;4985264;28;20066;-80
2021/08/05 08:49:41;;;;;;;5.65;4.32;;;17.30;99.90;;;;;;4994614;28;20027;-79
2021/08/05 08:52:08;;;;;;;4.40;3.72;;;17.50;99.90;;;;;;4986603;28;20049;-79
2021/08/05 08:54:40;;;;;;;5.45;3.88;;;17.50;99.90;;;;;;4994547;28;20109;-80
2021/08/05 08:57:06;;;;;;;4.60;3.47;;;17.60;99.90;;;;;;4996136;28;20041;-80
2021/08/05 08:59:33;;;;;;;4.95;4.13;;;17.70;99.90;;;;;;4993492;28;20038;-80
2021/08/05 09:01:59;;;;;;;7.95;5.00;;;17.80;99.90;;;;;;4991973;28;20113;-80
2021/08/05 09:04:26;;;;;;;6.18;4.97;;;17.90;99.90;;;;;;4994583;28;20062;-80
2021/08/05 09:06:52;;;;;;;5.32;4.20;;;17.80;99.90;;;;;;4993705;28;20030;-80
2021/08/05 09:09:18;;;;;;;5.00;4.18;;;17.70;99.90;;;;;;4972700;28;20038;-80
2021/08/05 09:11:43;;;;;;;5.93;4.28;;;17.70;99.90;;;;;;4966155;28;20421;-80
2021/08/05 09:14:10;;;;;;;5.88;3.67;;;17.80;99.90;;;;;;4991962;28;20031;-81
2021/08/05 09:16:36;;;;;;;4.35;3.22;;;17.80;99.90;;;;;;4991075;28;20037;-80
2021/08/05 09:19:15;;;;;;;3.85;3.45;;;17.80;99.90;;;;;;4974933;28;20030;-80
2021/08/05 09:22:00;;;;;;;4.75;3.50;;;17.60;99.90;;;;;;4982428;28;20035;-81
2021/08/05 09:24:28;;;;;;;5.82;3.90;;;17.60;99.90;;;;;;4980708;28;20066;-81
2021/08/05 09:26:57;;;;;;;4.63;3.80;;;17.60;99.90;;;;;;4977075;28;20026;-81
2021/08/05 09:29:24;;;;;;;4.15;3.67;;;17.50;99.90;;;;;;4985278;28;20053;-80
2021/08/05 09:31:49;;;;;;;6.97;4.00;;;17.50;99.90;;;;;;4982002;28;20077;-80
2021/08/05 09:34:17;;;;;;;4.20;3.08;;;17.60;99.90;;;;;;4974649;28;20039;-80
2021/08/05 09:36:45;;;;;;;4.22;3.38;;;17.50;99.90;;;;;;4974769;28;20041;-79
2021/08/05 09:39:24;;;;;;;3.90;3.50;;;17.50;99.90;;;;;;4992943;28;20507;-80
2021/08/05 09:42:07;;;;;;;5.10;3.63;;;17.50;99.90;;;;;;4981478;28;20030;-80
2021/08/05 09:44:39;;;;;;;5.25;4.10;;;17.40;99.90;;;;;;4960489;28;20045;-80
2021/08/05 09:47:10;;;;;;;3.72;3.22;;;17.50;99.90;;;;;;4994638;28;20074;-80
2021/08/05 09:49:46;;;;;;;5.35;3.08;;;17.50;99.90;;;;;;4974694;28;20125;-80
2021/08/05 09:52:12;;;;;;;6.55;3.60;;;17.40;99.90;;;;;;4977220;28;20039;-79
2021/08/05 09:54:48;;;;;;;4.70;3.25;;;17.30;99.90;;;;;;4994577;28;20034;-79
2021/08/05 09:57:22;;;;;;;7.07;4.40;;;17.20;99.90;;;;;;4991851;28;20081;-80
2021/08/05 10:00:12;;;;;;;6.43;4.25;;;17.00;99.90;;;;;;4986591;28;20030;-81
2021/08/05 10:02:42;;;;;;;8.15;3.72;;;16.90;99.90;;;;;;5002853;28;20634;-81
2021/08/05 10:05:20;;;;;;;7.97;4.88;;;16.80;99.90;;;;;;4985318;28;20140;-80
2021/08/05 10:07:54;;;;;;;5.07;4.07;;;16.70;99.90;;;;;;4978724;28;20027;-79
2021/08/05 10:10:23;;;;;;;5.05;4.30;;;16.70;99.90;;;;;;4981423;28;20057;-79
2021/08/05 10:12:53;;;;;;;5.93;4.78;;;16.70;99.90;;;;;;4988651;28;20026;-80
2021/08/05 10:15:20;;;;;;;6.35;4.22;;;16.70;99.90;;;;;;4985892;28;20053;-80
2021/08/05 10:17:55;;;;;;;5.38;3.83;;;16.70;99.90;;;;;;4963559;28;20027;-78
2021/08/05 10:20:22;;;;;;;5.88;4.35;;;16.70;99.90;;;;;;4981695;28;20031;-78
2021/08/05 10:22:50;;;;;;;5.00;4.47;;;16.80;99.90;;;;;;4981888;28;20042;-79
2021/08/05 10:25:20;;;;;;;5.68;4.80;;;16.80;99.90;;;;;;4982705;28;20098;-78
2021/08/05 10:27:46;;;;;;;5.20;4.70;;;16.90;99.90;;;;;;4980587;28;20069;-78
2021/08/05 10:30:15;;;;;;;6.15;4.63;;;17.00;99.90;;;;;;4986407;28;20038;-78
2021/08/05 10:32:40;;;;;;;6.10;5.05;;;17.10;99.90;;;;;;4973748;28;20042;-78
2021/08/05 10:35:08;;;;;;;7.70;5.05;;;17.20;99.90;;;;;;4985169;28;20034;-79
2021/08/05 10:37:34;;;;;;;4.85;3.78;;;17.30;99.90;;;;;;4983589;28;20039;-78
2021/08/05 10:40:01;;;;;;;6.35;4.40;;;17.40;99.90;;;;;;4982645;28;20022;-78
2021/08/05 10:42:27;;;;;;;4.78;4.28;;;17.50;99.90;;;;;;4986393;28;20113;-79
2021/08/05 10:44:53;;;;;;;6.25;4.47;;;17.50;99.90;;;;;;4986074;28;20121;-79
2021/08/05 10:47:24;;;;;;;6.28;4.65;;;17.60;99.90;;;;;;4987141;28;20763;-80
2021/08/05 10:49:54;;;;;;;5.22;4.10;;;17.70;99.90;;;;;;4971161;28;20030;-80
2021/08/05 10:52:34;;;;;;;5.85;4.43;;;17.80;99.90;;;;;;4983718;28;20033;-78
2021/08/05 10:55:03;;;;;;;5.60;3.95;;;17.80;99.90;;;;;;4995575;28;20057;-80
2021/08/05 10:57:29;;;;;;;5.65;4.45;;;17.90;99.90;;;;;;4967626;28;20070;-79
2021/08/05 11:00:06;;;;;;;6.38;4.78;;;17.80;99.90;;;;;;4976654;28;20817;-79
2021/08/05 11:02:51;;;;;;;5.60;4.72;;;17.90;99.90;;;;;;4967485;28;20030;-79
2021/08/05 11:05:23;;;;;;;6.07;4.80;;;17.90;99.90;;;;;;4982683;28;20039;-79
2021/08/05 11:08:11;;;;;;;5.15;4.53;;;18.00;99.90;;;;;;4980570;28;20054;-80
2021/08/05 11:10:37;;;;;;;5.07;4.00;;;18.10;99.90;;;;;;4982700;28;20057;-78
2021/08/05 11:13:09;;;;;;;5.40;4.10;;;18.20;99.90;;;;;;4982799;28;20092;-79
2021/08/05 11:15:35;;;;;;;5.78;4.10;;;18.10;99.90;;;;;;4980440;28;20520;-79
2021/08/05 11:20:36;;;;;;;4.45;3.85;;;18.20;99.90;;;;;;4983962;28;20400;-80
2021/08/05 11:23:02;;;;;;;4.75;3.67;;;18.30;99.90;;;;;;4995683;28;20074;-80
2021/08/05 11:25:55;;;;;;;3.85;3.45;;;18.30;99.90;;;;;;4978109;28;20445;-79
2021/08/05 11:28:25;;;;;;;4.72;3.83;;;18.50;99.90;;;;;;4981834;28;20031;-79
2021/08/05 11:31:02;;;;;;;4.43;3.42;;;18.60;99.90;;;;;;4963314;28;20030;-79
2021/08/05 11:33:36;;;;;;;3.50;3.20;;;18.60;99.90;;;;;;4983159;28;20031;-79
2021/08/05 11:36:33;;;;;;;5.10;4.05;;;18.70;99.90;;;;;;4983744;28;20640;-79
2021/08/05 11:39:14;;;;;;;5.45;3.97;;;18.90;99.90;;;;;;4982296;28;20028;-81
2021/08/05 11:41:44;;;;;;;3.58;3.08;;;19.00;99.90;;;;;;4984755;28;20023;-79
2021/08/05 11:44:20;;;;;;;4.03;3.20;;;19.00;99.90;;;;;;4966027;28;20600;-79
2021/08/05 11:46:49;;;;;;;4.25;3.03;;;19.10;99.90;;;;;;4984947;28;20477;-80
2021/08/05 11:49:35;;;;;;;3.60;3.20;;;19.10;99.90;;;;;;4980498;28;20562;-81
2021/08/05 11:52:29;;;;;;;3.67;3.35;;;19.00;99.90;;;;;;4955446;28;20081;-80
2021/08/05 11:55:11;;;;;;;3.95;3.47;;;18.80;99.90;;;;;;4980479;28;20069;-79
2021/08/05 11:57:44;;;;;;;4.15;3.60;;;18.80;99.90;;;;;;4965365;28;20030;-80
2021/08/05 12:00:23;;;;;;;3.88;3.45;;;18.70;99.90;;;;;;4981937;28;20035;-80
2021/08/05 12:02:51;;;;;;;4.30;3.22;;;18.60;99.90;;;;;;4992134;28;20445;-79
2021/08/05 12:05:20;;;;;;;3.72;3.35;;;18.50;99.90;;;;;;4960614;28;20477;-79
2021/08/05 12:07:51;;;;;;;4.07;3.58;;;18.50;99.90;;;;;;4965423;28;20424;-78
2021/08/05 12:10:26;;;;;;;4.95;3.28;;;18.60;99.90;;;;;;4966213;28;20392;-79
2021/08/05 12:12:54;;;;;;;3.88;3.38;;;18.60;99.90;;;;;;4968553;28;20029;-79
2021/08/05 12:15:29;;;;;;;3.58;3.25;;;18.60;99.90;;;;;;4988093;28;20030;-80
2021/08/05 12:18:06;;;;;;;2.80;2.55;;;18.60;99.90;;;;;;4983394;28;20034;-80
2021/08/05 12:20:40;;;;;;;5.38;3.35;;;18.60;99.90;;;;;;4981167;28;20440;-79
2021/08/05 12:23:09;;;;;;;2.60;2.40;;;18.60;99.90;;;;;;4983676;28;20092;-81
2021/08/05 12:26:07;;;;;;;3.30;3.00;;;18.60;99.90;;;;;;4967457;28;20018;-81
2021/08/05 12:28:35;;;;;;;2.90;2.60;;;18.50;99.90;;;;;;4984385;28;20035;-79
2021/08/05 12:31:04;;;;;;;3.60;2.42;;;18.40;99.90;;;;;;4982420;28;20023;-81
2021/08/05 12:33:41;;;;;;;4.38;3.13;;;18.30;99.90;;;;;;4982596;28;20113;-79
2021/08/05 12:36:08;;;;;;;3.00;2.70;;;18.20;99.90;;;;;;4985482;28;20042;-78
2021/08/05 12:38:52;;;;;;;4.55;2.90;;;18.10;99.90;;;;;;4983366;28;20073;-79
2021/08/05 12:41:31;;;;;;;2.92;2.55;;;18.00;99.90;;;;;;4977581;28;20472;-79
2021/08/05 12:44:04;;;;;;;3.47;3.00;;;18.00;99.90;;;;;;4982468;28;20022;-79
2021/08/05 12:46:30;;;;;;;2.65;2.42;;;18.00;99.90;;;;;;4983563;28;20113;-79
2021/08/05 12:49:00;;;;;;;1.92;1.77;;;18.10;99.90;;;;;;4984885;28;20030;-79
2021/08/05 12:51:29;;;;;;;2.15;1.95;;;18.20;99.90;;;;;;4985540;28;20033;-81
2021/08/05 12:53:55;;;;;;;1.90;1.67;;;18.20;99.90;;;;;;4973935;28;20053;-82
2021/08/05 12:56:43;;;;;;;1.50;1.40;;;18.20;99.90;;;;;;4975951;28;20108;-80
2021/08/05 12:59:09;;;;;;;1.50;1.40;;;18.30;99.90;;;;;;4978294;28;20037;-79